createdAt,value
2023-01-04T08:42:39.798Z,68.29
2023-01-04T09:02:26.417Z,48.42
2023-01-04T09:10:10.119Z,44.75
2023-01-04T09:39:24.221Z,38.94
2023-01-04T10:04:49.225Z,37.97
2023-01-04T10:09:50.767Z,36.13
2023-01-04T10:14:52.356Z,35.39
2023-01-04T11:36:59.425Z,61.70
2023-01-04T11:42:04.431Z,61.07
2023-01-04T11:47:19.439Z,62.54
2023-01-04T11:52:28.907Z,62.93
2023-01-04T11:57:30.622Z,63.41
2023-01-04T12:03:00.325Z,63.71
2023-01-04T12:07:54.029Z,64.36
2023-01-04T12:12:59.615Z,64.70
2023-01-04T12:18:28.084Z,65.08
2023-01-04T12:23:30.712Z,65.71
2023-01-04T12:28:39.966Z,66.16
2023-01-04T12:33:41.679Z,65.83
2023-01-04T12:38:52.317Z,65.17
2023-01-04T12:43:54.021Z,65.05
2023-01-04T12:49:04.759Z,64.92
2023-01-04T12:54:23.902Z,65.48
2023-01-04T12:59:55.181Z,65.67
2023-01-04T13:10:51.609Z,66.63
2023-01-04T13:16:11.716Z,66.71
2023-01-04T13:21:33.199Z,66.86
2023-01-04T13:26:46.000Z,67.51
2023-01-04T13:31:55.656Z,67.51
2023-01-04T13:37:13.652Z,68.06
2023-01-04T13:42:32.379Z,67.81
2023-01-04T13:47:40.736Z,67.99
2023-01-04T13:52:58.353Z,67.73
2023-01-04T13:58:06.669Z,68.35
2023-01-04T14:03:29.818Z,68.31
2023-01-04T14:08:40.774Z,68.80
2023-01-04T14:13:48.130Z,69.15
2023-01-04T14:18:49.835Z,69.78
2023-01-04T14:23:51.480Z,69.60
2023-01-04T14:28:53.090Z,69.44
2023-01-04T14:33:55.214Z,70.10
2023-01-04T14:39:10.221Z,70.26
2023-01-04T14:44:16.198Z,70.24
2023-01-04T14:49:19.962Z,70.95
2023-01-04T14:54:25.348Z,72.08
2023-01-04T14:59:28.275Z,73.07
2023-01-04T15:04:30.197Z,74.77
2023-01-04T15:09:32.068Z,75.56
2023-01-04T15:14:34.463Z,76.79
2023-01-04T15:19:38.292Z,77.71
2023-01-04T15:24:40.210Z,78.44
2023-01-04T15:29:41.913Z,79.04
2023-01-04T15:34:47.010Z,79.91
2023-01-04T15:39:49.111Z,80.34
2023-01-04T15:44:50.739Z,80.38
2023-01-04T15:49:52.330Z,80.49
2023-01-04T15:54:54.009Z,81.11
2023-01-04T15:59:55.635Z,80.73
2023-01-04T16:04:57.247Z,81.37
2023-01-04T16:09:59.096Z,81.48
2023-01-04T16:15:01.095Z,81.70
2023-01-04T16:20:03.550Z,81.78
2023-01-04T16:25:11.326Z,81.91
2023-01-04T16:30:14.096Z,81.93
2023-01-04T16:35:15.866Z,81.71
2023-01-04T16:40:17.530Z,82.02
2023-01-04T16:45:19.519Z,82.02
2023-01-04T16:50:21.194Z,82.12
2023-01-04T16:55:24.285Z,81.93
2023-01-04T17:00:26.165Z,81.82
2023-01-04T17:05:27.799Z,81.62
2023-01-04T17:10:29.960Z,81.50
2023-01-04T17:15:42.942Z,81.50
2023-01-04T17:20:53.276Z,81.08
2023-01-04T17:26:00.017Z,80.80
2023-01-04T17:31:08.266Z,80.62
2023-01-04T17:36:12.798Z,80.49
2023-01-04T17:41:16.174Z,80.30
2023-01-04T17:46:23.202Z,80.01
2023-01-04T17:51:26.137Z,79.72
2023-01-04T17:56:29.847Z,79.62
2023-01-04T18:01:33.304Z,79.40
2023-01-04T18:06:36.987Z,79.22
2023-01-04T18:11:38.774Z,79.31
2023-01-04T18:16:57.016Z,79.10
2023-01-04T18:21:59.434Z,78.85
2023-01-04T18:27:20.887Z,78.77
2023-01-04T18:32:24.927Z,78.60
2023-01-04T18:37:26.656Z,78.47
2023-01-04T18:42:31.142Z,78.06
2023-01-04T18:47:33.065Z,77.90
2023-01-04T18:52:35.655Z,77.40
2023-01-04T18:57:38.391Z,77.68
2023-01-04T19:02:40.337Z,77.44
2023-01-04T19:07:42.128Z,77.32
2023-01-04T19:12:43.845Z,77.19
2023-01-04T19:17:45.554Z,77.36
2023-01-04T19:22:47.316Z,77.33
2023-01-04T19:27:49.000Z,77.33
2023-01-04T19:32:50.643Z,77.26
2023-01-04T19:37:52.332Z,77.34
2023-01-04T19:42:54.158Z,76.74
2023-01-04T19:47:56.059Z,76.35
2023-01-04T19:52:57.730Z,76.66
2023-01-04T19:57:59.576Z,76.72
2023-01-04T20:03:01.541Z,76.59
2023-01-04T20:08:03.472Z,76.59
2023-01-04T20:13:05.151Z,76.65
2023-01-04T20:18:11.930Z,76.59
2023-01-04T20:23:16.520Z,76.50
2023-01-04T20:28:20.250Z,76.47
2023-01-04T20:33:22.022Z,76.53
2023-01-04T20:38:23.921Z,76.65
2023-01-04T20:43:34.819Z,76.26
2023-01-04T20:48:36.609Z,76.25
2023-01-04T20:53:38.711Z,76.21
2023-01-04T20:58:40.539Z,76.21
2023-01-04T21:03:43.000Z,76.89
2023-01-04T21:08:45.774Z,77.30
2023-01-04T21:13:49.411Z,77.12
2023-01-04T21:18:51.051Z,77.02
2023-01-04T21:23:57.756Z,77.07
2023-01-04T21:28:59.885Z,77.15
2023-01-04T21:34:04.391Z,77.19
2023-01-04T21:39:08.533Z,76.81
2023-01-04T21:44:10.191Z,77.14
2023-01-04T21:49:12.629Z,77.53
2023-01-04T21:54:14.275Z,78.03
2023-01-04T21:59:16.493Z,78.43
2023-01-04T22:04:18.216Z,79.09
2023-01-04T22:09:21.193Z,79.15
2023-01-04T22:14:24.540Z,79.22
2023-01-04T22:19:26.672Z,79.18
2023-01-04T22:24:31.459Z,78.89
2023-01-04T22:29:38.296Z,79.09
2023-01-04T22:34:46.158Z,78.78
2023-01-04T22:39:47.820Z,78.98
2023-01-04T22:44:49.732Z,79.03
2023-01-04T22:49:51.422Z,79.56
2023-01-04T22:54:53.155Z,79.61
2023-01-04T22:59:54.870Z,79.76
2023-01-04T23:04:56.519Z,79.76
2023-01-04T23:09:58.321Z,80.02
2023-01-04T23:15:00.495Z,80.08
2023-01-04T23:20:05.338Z,80.13
2023-01-04T23:25:11.306Z,80.27
2023-01-04T23:30:14.889Z,80.29
2023-01-04T23:35:16.650Z,80.05
2023-01-04T23:40:18.344Z,80.80
2023-01-04T23:45:20.044Z,80.61
2023-01-04T23:50:22.230Z,81.06
2023-01-04T23:55:23.911Z,80.73
